sensor_id;sensor_type;location;lat;lon;timestamp;P1;P2;P0
74426;PMS7003;62859;53.906;27.430;2023-07-20T00:00:50;2;2;1.5
74426;PMS7003;62859;53.906;27.430;2023-07-20T00:05:34;2;2;1.7
74426;PMS7003;62859;53.906;27.430;2023-07-20T00:10:28;3;2.7;1.7
74426;PMS7003;62859;53.906;27.430;2023-07-20T00:15:22;2;2;1.7
74426;PMS7003;62859;53.906;27.430;2023-07-20T00:20:08;1.8;1.8;1.5
74426;PMS7003;62859;53.906;27.430;2023-07-20T00:25:14;3.3;2.3;2
74426;PMS7003;62859;53.906;27.430;2023-07-20T00:30:08;2.7;2.7;2.3
74426;PMS7003;62859;53.906;27.430;2023-07-20T00:35:50;2.7;2.7;2
74426;PMS7003;62859;53.906;27.430;2023-07-20T00:40:36;3.8;3.3;2.3
74426;PMS7003;62859;53.906;27.430;2023-07-20T00:45:42;4.3;4;3
74426;PMS7003;62859;53.906;27.430;2023-07-20T00:50:20;2.7;2.7;2
74426;PMS7003;62859;53.906;27.430;2023-07-20T00:55:14;3.3;3.3;2.3
74426;PMS7003;62859;53.906;27.430;2023-07-20T01:00:50;4;3;2
74426;PMS7003;62859;53.906;27.430;2023-07-20T01:05:14;2;2;1.7
74426;PMS7003;62859;53.906;27.430;2023-07-20T01:10:18;2.3;2;1.7
74426;PMS7003;62859;53.906;27.430;2023-07-20T01:15:22;2;1.7;1
74426;PMS7003;62859;53.906;27.430;2023-07-20T01:20:50;2.8;2.5;2
74426;PMS7003;62859;53.906;27.430;2023-07-20T01:25:21;3.3;2.7;2
74426;PMS7003;62859;53.906;27.430;2023-07-20T01:30:25;2.7;2.3;2.3
74426;PMS7003;62859;53.906;27.430;2023-07-20T01:35:36;1.7;1.7;1.7
74426;PMS7003;62859;53.906;27.430;2023-07-20T01:40:14;3.8;3.3;2.3
74426;PMS7003;62859;53.906;27.430;2023-07-20T01:45:20;2.7;2.7;2
74426;PMS7003;62859;53.906;27.430;2023-07-20T01:50:26;2.7;2.3;2.3
74426;PMS7003;62859;53.906;27.430;2023-07-20T01:55:52;2.8;2.8;2.3
74426;PMS7003;62859;53.906;27.430;2023-07-20T02:00:08;2.7;2.7;1.7
74426;PMS7003;62859;53.906;27.430;2023-07-20T02:05:14;3;2.7;2
74426;PMS7003;62859;53.906;27.430;2023-07-20T02:10:42;3;3;2.7
74426;PMS7003;62859;53.906;27.430;2023-07-20T02:15:30;3.8;3;2.5
74426;PMS7003;62859;53.906;27.430;2023-07-20T02:20:30;4;3.7;2
74426;PMS7003;62859;53.906;27.430;2023-07-20T02:25:14;3;3;3
74426;PMS7003;62859;53.906;27.430;2023-07-20T02:30:36;3.7;3.7;2.3
74426;PMS7003;62859;53.906;27.430;2023-07-20T02:35:28;4;3.8;2.8
74426;PMS7003;62859;53.906;27.430;2023-07-20T02:40:42;3.3;3.3;3
74426;PMS7003;62859;53.906;27.430;2023-07-20T02:45:48;3.3;3.3;2.7
74426;PMS7003;62859;53.906;27.430;2023-07-20T02:50:28;4;3.7;3
74426;PMS7003;62859;53.906;27.430;2023-07-20T02:55:20;4;4;3
74426;PMS7003;62859;53.906;27.430;2023-07-20T03:00:24;4.7;3.7;2.7
74426;PMS7003;62859;53.906;27.430;2023-07-20T03:05:24;4;3;2
74426;PMS7003;62859;53.906;27.430;2023-07-20T03:10:08;5;4.3;3
74426;PMS7003;62859;53.906;27.430;2023-07-20T03:15:51;5;4.5;3.8
74426;PMS7003;62859;53.906;27.430;2023-07-20T03:20:08;5.3;4.3;3.7
74426;PMS7003;62859;53.906;27.430;2023-07-20T03:25:28;6.3;5.7;3.7
74426;PMS7003;62859;53.906;27.430;2023-07-20T03:30:52;4;4;3.3
74426;PMS7003;62859;53.906;27.430;2023-07-20T03:35:36;4;3.5;3
74426;PMS7003;62859;53.906;27.430;2023-07-20T03:40:14;3.3;3.3;2.7
74426;PMS7003;62859;53.906;27.430;2023-07-20T03:45:40;5.7;5;3.7
74426;PMS7003;62859;53.906;27.430;2023-07-20T03:50:50;3.8;3.5;2.5
74426;PMS7003;62859;53.906;27.430;2023-07-20T03:55:50;4.3;3.7;3
74426;PMS7003;62859;53.906;27.430;2023-07-20T04:00:50;4;3.7;3
74426;PMS7003;62859;53.906;27.430;2023-07-20T04:05:34;3.3;3.3;3
74426;PMS7003;62859;53.906;27.430;2023-07-20T04:10:14;4.5;4.5;4
74426;PMS7003;62859;53.906;27.430;2023-07-20T04:15:14;3.7;3.7;3
74426;PMS7003;62859;53.906;27.430;2023-07-20T04:20:42;3.3;3.3;2.7
74426;PMS7003;62859;53.906;27.430;2023-07-20T04:25:50;5;4.7;3.3
74426;PMS7003;62859;53.906;27.430;2023-07-20T04:30:36;4;3.5;2.5
74426;PMS7003;62859;53.906;27.430;2023-07-20T04:35:46;4.7;4.3;3.3
74426;PMS7003;62859;53.906;27.430;2023-07-20T04:40:50;5;4.3;3.7
74426;PMS7003;62859;53.906;27.430;2023-07-20T04:45:34;4;3.7;3
74426;PMS7003;62859;53.906;27.430;2023-07-20T04:50:08;4.8;3.8;3
74426;PMS7003;62859;53.906;27.430;2023-07-20T04:55:36;5.7;4.7;4
74426;PMS7003;62859;53.906;27.430;2023-07-20T05:00:50;4;4;3.3
74426;PMS7003;62859;53.906;27.430;2023-07-20T05:05:34;5.7;5;4
74426;PMS7003;62859;53.906;27.430;2023-07-20T05:10:40;5.5;4.8;3.8
74426;PMS7003;62859;53.906;27.430;2023-07-20T05:15:08;5;4.7;4
74426;PMS7003;62859;53.906;27.430;2023-07-20T05:20:08;5;4.3;3.3
74426;PMS7003;62859;53.906;27.430;2023-07-20T05:25:53;5.7;5;4
74426;PMS7003;62859;53.906;27.430;2023-07-20T05:30:14;4;3.8;2.8
74426;PMS7003;62859;53.906;27.430;2023-07-20T05:35:20;5;4.3;3.3
74426;PMS7003;62859;53.906;27.430;2023-07-20T05:40:16;4.7;4;3
74426;PMS7003;62859;53.906;27.430;2023-07-20T05:45:50;6.3;4.8;3.5
74426;PMS7003;62859;53.906;27.430;2023-07-20T05:50:08;2.3;2.3;2
74426;PMS7003;62859;53.906;27.430;2023-07-20T05:55:08;4;4;3.7
74426;PMS7003;62859;53.906;27.430;2023-07-20T06:00:36;3.3;2.3;1.7
74426;PMS7003;62859;53.906;27.430;2023-07-20T06:05:08;2.8;2.8;2
74426;PMS7003;62859;53.906;27.430;2023-07-20T06:10:08;3;2.7;1.7
74426;PMS7003;62859;53.906;27.430;2023-07-20T06:15:27;2.7;2.3;1.7
74426;PMS7003;62859;53.906;27.430;2023-07-20T06:20:50;2.7;2;1.3
74426;PMS7003;62859;53.906;27.430;2023-07-20T06:25:28;3;2.5;1.8
74426;PMS7003;62859;53.906;27.430;2023-07-20T06:30:50;4.7;4.3;3.3
74426;PMS7003;62859;53.906;27.430;2023-07-20T06:35:50;2.7;2.3;2
74426;PMS7003;62859;53.906;27.430;2023-07-20T06:40:36;3;3;2
74426;PMS7003;62859;53.906;27.430;2023-07-20T06:45:08;2.8;2.8;1.5
74426;PMS7003;62859;53.906;27.430;2023-07-20T06:50:26;2.7;2.7;2.3
74426;PMS7003;62859;53.906;27.430;2023-07-20T06:55:34;6.3;5.7;4
74426;PMS7003;62859;53.906;27.430;2023-07-20T07:00:14;4.3;4;2.7
74426;PMS7003;62859;53.906;27.430;2023-07-20T07:05:28;3;3;2.8
74426;PMS7003;62859;53.906;27.430;2023-07-20T07:10:42;3.3;3.3;2.7
74426;PMS7003;62859;53.906;27.430;2023-07-20T07:15:34;4.7;3.7;2
74426;PMS7003;62859;53.906;27.430;2023-07-20T07:20:34;8.7;5.3;3.3
74426;PMS7003;62859;53.906;27.430;2023-07-20T07:25:08;3.8;3;2.5
74426;PMS7003;62859;53.906;27.430;2023-07-20T07:30:08;4;3.7;2.7
74426;PMS7003;62859;53.906;27.430;2023-07-20T07:35:20;3;2.7;1.7
74426;PMS7003;62859;53.906;27.430;2023-07-20T07:40:50;3;2.5;1.8
74426;PMS7003;62859;53.906;27.430;2023-07-20T07:45:20;3.3;3;2.7
74426;PMS7003;62859;53.906;27.430;2023-07-20T07:50:34;4;3;2.3
74426;PMS7003;62859;53.906;27.430;2023-07-20T07:55:50;3;2.7;1.7
74426;PMS7003;62859;53.906;27.430;2023-07-20T08:00:28;2;1.5;1.5
74426;PMS7003;62859;53.906;27.430;2023-07-20T08:05:32;3;1.7;1
74426;PMS7003;62859;53.906;27.430;2023-07-20T08:10:42;3;2;1.7
74426;PMS7003;62859;53.906;27.430;2023-07-20T08:15:50;3.3;3;2.3
74426;PMS7003;62859;53.906;27.430;2023-07-20T08:20:50;2.5;2.5;1.8
74426;PMS7003;62859;53.906;27.430;2023-07-20T08:25:48;2;1.7;0.7
74426;PMS7003;62859;53.906;27.430;2023-07-20T08:30:50;1.3;1.3;1
74426;PMS7003;62859;53.906;27.430;2023-07-20T08:35:24;4;2.3;2.3
74426;PMS7003;62859;53.906;27.430;2023-07-20T08:40:08;2.3;2.3;1.8
74426;PMS7003;62859;53.906;27.430;2023-07-20T08:45:42;1.7;1.7;1.7
74426;PMS7003;62859;53.906;27.430;2023-07-20T08:50:50;2.3;2.3;1.7
74426;PMS7003;62859;53.906;27.430;2023-07-20T08:55:36;2;2;1.3
74426;PMS7003;62859;53.906;27.430;2023-07-20T09:00:42;3;3;2
74426;PMS7003;62859;53.906;27.430;2023-07-20T09:05:50;3.3;2.7;2.7
74426;PMS7003;62859;53.906;27.430;2023-07-20T09:10:14;2.7;2.7;2.3
74426;PMS7003;62859;53.906;27.430;2023-07-20T09:15:36;2;2;1.7
74426;PMS7003;62859;53.906;27.430;2023-07-20T09:20:29;2;1.8;1.3
74426;PMS7003;62859;53.906;27.430;2023-07-20T09:25:50;2;2;1.3
74426;PMS7003;62859;53.906;27.430;2023-07-20T09:30:36;4.3;3.3;1.7
74426;PMS7003;62859;53.906;27.430;2023-07-20T09:35:42;2.3;1.8;1.3
74426;PMS7003;62859;53.906;27.430;2023-07-20T09:40:26;2.3;2.3;1.7
74426;PMS7003;62859;53.906;27.430;2023-07-20T09:45:29;1.7;1.7;1
74426;PMS7003;62859;53.906;27.430;2023-07-20T09:50:48;1;1;0.3
74426;PMS7003;62859;53.906;27.430;2023-07-20T09:55:08;1.8;1.8;1.3
74426;PMS7003;62859;53.906;27.430;2023-07-20T10:00:22;1.7;1;1
74426;PMS7003;62859;53.906;27.430;2023-07-20T10:05:38;2.3;2;1
74426;PMS7003;62859;53.906;27.430;2023-07-20T10:10:50;2.7;2;1.7
74426;PMS7003;62859;53.906;27.430;2023-07-20T10:15:29;3;2.5;2
74426;PMS7003;62859;53.906;27.430;2023-07-20T10:20:09;1.7;1.7;1.3
74426;PMS7003;62859;53.906;27.430;2023-07-20T10:25:36;1.7;1.7;1
74426;PMS7003;62859;53.906;27.430;2023-07-20T10:30:28;1.7;1;0.7
74426;PMS7003;62859;53.906;27.430;2023-07-20T10:35:14;1.8;1.8;1.5
74426;PMS7003;62859;53.906;27.430;2023-07-20T10:40:27;1.7;1;0.3
74426;PMS7003;62859;53.906;27.430;2023-07-20T10:45:50;1.7;1.3;1
74426;PMS7003;62859;53.906;27.430;2023-07-20T10:50:28;2;1.7;1
74426;PMS7003;62859;53.906;27.430;2023-07-20T10:55:50;1.7;1.7;0.7
74426;PMS7003;62859;53.906;27.430;2023-07-20T11:00:58;2.3;2.3;1.7
74426;PMS7003;62859;53.906;27.430;2023-07-20T11:05:38;3;3;2
74426;PMS7003;62859;53.906;27.430;2023-07-20T11:10:20;2.3;2;1
74426;PMS7003;62859;53.906;27.430;2023-07-20T11:15:08;3.3;2.7;2
74426;PMS7003;62859;53.906;27.430;2023-07-20T11:20:08;2.3;2.3;2
74426;PMS7003;62859;53.906;27.430;2023-07-20T11:25:14;2;2;2
74426;PMS7003;62859;53.906;27.430;2023-07-20T11:30:15;3.5;3;2
74426;PMS7003;62859;53.906;27.430;2023-07-20T11:35:30;2.7;2.3;1.3
74426;PMS7003;62859;53.906;27.430;2023-07-20T11:40:28;3.3;3.3;2.7
74426;PMS7003;62859;53.906;27.430;2023-07-20T11:45:34;2.8;2.8;2.5
74426;PMS7003;62859;53.906;27.430;2023-07-20T11:50:08;3;2.3;2
74426;PMS7003;62859;53.906;27.430;2023-07-20T11:55:20;4.3;3.3;2.7
74426;PMS7003;62859;53.906;27.430;2023-07-20T12:00:14;6.3;6;4.3
74426;PMS7003;62859;53.906;27.430;2023-07-20T12:05:50;3;2.8;2
74426;PMS7003;62859;53.906;27.430;2023-07-20T12:10:09;2;1.7;1.3
74426;PMS7003;62859;53.906;27.430;2023-07-20T12:15:34;2.7;2.3;1.7
74426;PMS7003;62859;53.906;27.430;2023-07-20T12:20:48;2;1;1
74426;PMS7003;62859;53.906;27.430;2023-07-20T12:25:43;2.8;2;1.8
74426;PMS7003;62859;53.906;27.430;2023-07-20T12:30:08;4.3;4;2.7
74426;PMS7003;62859;53.906;27.430;2023-07-20T12:35:40;2.7;2.7;2.3
74426;PMS7003;62859;53.906;27.430;2023-07-20T12:40:48;1.7;1.7;1
74426;PMS7003;62859;53.906;27.430;2023-07-20T12:45:50;2.5;1.8;1.3
74426;PMS7003;62859;53.906;27.430;2023-07-20T12:50:50;2;2;1.7
74426;PMS7003;62859;53.906;27.430;2023-07-20T12:55:50;2.3;2.3;1.7
74426;PMS7003;62859;53.906;27.430;2023-07-20T13:00:09;0.7;0.7;0.7
74426;PMS7003;62859;53.906;27.430;2023-07-20T13:05:08;1;0.8;0.3
74426;PMS7003;62859;53.906;27.430;2023-07-20T13:10:29;0.7;0.7;0.7
74426;PMS7003;62859;53.906;27.430;2023-07-20T13:15:50;1;0.3;0.3
74426;PMS7003;62859;53.906;27.430;2023-07-20T13:20:36;1;1;0.5
74426;PMS7003;62859;53.906;27.430;2023-07-20T13:25:42;1;0.3;0.3
74426;PMS7003;62859;53.906;27.430;2023-07-20T13:30:50;0.7;0.7;0.3
74426;PMS7003;62859;53.906;27.430;2023-07-20T13:35:20;1.3;1;0
74426;PMS7003;62859;53.906;27.430;2023-07-20T13:40:08;1.3;1;0.3
74426;PMS7003;62859;53.906;27.430;2023-07-20T13:45:22;1.3;0.7;0.3
74426;PMS7003;62859;53.906;27.430;2023-07-20T13:50:50;0.7;0.7;0.7
74426;PMS7003;62859;53.906;27.430;2023-07-20T13:55:30;0.7;0.3;0.3
74426;PMS7003;62859;53.906;27.430;2023-07-20T14:00:42;0.5;0.5;0.3
74426;PMS7003;62859;53.906;27.430;2023-07-20T14:05:26;1;0.7;0
74426;PMS7003;62859;53.906;27.430;2023-07-20T14:10:14;0.3;0;0
74426;PMS7003;62859;53.906;27.430;2023-07-20T14:15:38;0.3;0.3;0.3
74426;PMS7003;62859;53.906;27.430;2023-07-20T14:20:28;0.3;0.3;0.3
74426;PMS7003;62859;53.906;27.430;2023-07-20T14:25:34;0;0;0
74426;PMS7003;62859;53.906;27.430;2023-07-20T14:30:36;0;0;0
74426;PMS7003;62859;53.906;27.430;2023-07-20T14:35:50;0.7;0.3;0
74426;PMS7003;62859;53.906;27.430;2023-07-20T14:40:08;1.5;0.8;0.5
74426;PMS7003;62859;53.906;27.430;2023-07-20T14:45:20;0.3;0.3;0.3
74426;PMS7003;62859;53.906;27.430;2023-07-20T14:50:16;1.3;1.3;1
74426;PMS7003;62859;53.906;27.430;2023-07-20T14:55:28;0.3;0;0
74426;PMS7003;62859;53.906;27.430;2023-07-20T15:00:14;0.3;0.3;0
74426;PMS7003;62859;53.906;27.430;2023-07-20T15:05:26;0.7;0.7;0.3
74426;PMS7003;62859;53.906;27.430;2023-07-20T15:10:16;0.3;0.3;0
74426;PMS7003;62859;53.906;27.430;2023-07-20T15:15:09;1.3;1.3;0.5
74426;PMS7003;62859;53.906;27.430;2023-07-20T15:20:28;0.7;0.3;0.3
74426;PMS7003;62859;53.906;27.430;2023-07-20T15:25:38;1.7;1.3;1
74426;PMS7003;62859;53.906;27.430;2023-07-20T15:30:22;0.3;0;0
74426;PMS7003;62859;53.906;27.430;2023-07-20T15:35:20;1.3;1;0.5
74426;PMS7003;62859;53.906;27.430;2023-07-20T15:40:18;0.7;0.7;0.3
74426;PMS7003;62859;53.906;27.430;2023-07-20T15:45:20;2;2;1.3
74426;PMS7003;62859;53.906;27.430;2023-07-20T15:50:14;1.7;1.3;1
74426;PMS7003;62859;53.906;27.430;2023-07-20T15:55:28;1;1;0.3
74426;PMS7003;62859;53.906;27.430;2023-07-20T16:00:40;1.3;0.7;0.3
74426;PMS7003;62859;53.906;27.430;2023-07-20T16:05:28;0;0;0
74426;PMS7003;62859;53.906;27.430;2023-07-20T16:10:28;1.7;1.7;1
74426;PMS7003;62859;53.906;27.430;2023-07-20T16:15:26;0.5;0.5;0
74426;PMS7003;62859;53.906;27.430;2023-07-20T16:20:26;1;0.7;0.3
74426;PMS7003;62859;53.906;27.430;2023-07-20T16:25:14;2;1.3;0.7
74426;PMS7003;62859;53.906;27.430;2023-07-20T16:30:50;2;2;2
74426;PMS7003;62859;53.906;27.430;2023-07-20T16:35:14;2.5;2.5;1.8
74426;PMS7003;62859;53.906;27.430;2023-07-20T16:40:35;2.3;2.3;1.7
74426;PMS7003;62859;53.906;27.430;2023-07-20T16:45:48;0.7;0.3;0.3
74426;PMS7003;62859;53.906;27.430;2023-07-20T16:50:42;0.7;0.7;0.3
74426;PMS7003;62859;53.906;27.430;2023-07-20T16:55:18;1.3;1.3;0.5
74426;PMS7003;62859;53.906;27.430;2023-07-20T17:00:42;2.3;1.3;1
74426;PMS7003;62859;53.906;27.430;2023-07-20T17:05:50;1;0.7;0.3
74426;PMS7003;62859;53.906;27.430;2023-07-20T17:10:50;1;0.5;0
74426;PMS7003;62859;53.906;27.430;2023-07-20T17:15:50;1.7;1.3;0.7
74426;PMS7003;62859;53.906;27.430;2023-07-20T17:20:50;0.3;0.3;0
74426;PMS7003;62859;53.906;27.430;2023-07-20T17:25:20;2;2;1.3
74426;PMS7003;62859;53.906;27.430;2023-07-20T17:30:08;2;1.8;1.3
74426;PMS7003;62859;53.906;27.430;2023-07-20T17:35:42;0.7;0.7;0.3
74426;PMS7003;62859;53.906;27.430;2023-07-20T17:40:49;1.3;1.3;0.7
74426;PMS7003;62859;53.906;27.430;2023-07-20T17:45:50;1;1;0.7
74426;PMS7003;62859;53.906;27.430;2023-07-20T17:50:42;1.5;1;0.8
74426;PMS7003;62859;53.906;27.430;2023-07-20T17:55:50;1.3;0.7;0
74426;PMS7003;62859;53.906;27.430;2023-07-20T18:00:08;0.3;0.3;0.3
74426;PMS7003;62859;53.906;27.430;2023-07-20T18:05:14;0.3;0.3;0
74426;PMS7003;62859;53.906;27.430;2023-07-20T18:10:08;1.3;0.8;0.5
74426;PMS7003;62859;53.906;27.430;2023-07-20T18:15:53;0.7;0.7;0.7
74426;PMS7003;62859;53.906;27.430;2023-07-20T18:20:36;1.7;1.3;1
74426;PMS7003;62859;53.906;27.430;2023-07-20T18:25:42;0.7;0.7;0.7
74426;PMS7003;62859;53.906;27.430;2023-07-20T18:30:26;0.3;0.3;0.3
74426;PMS7003;62859;53.906;27.430;2023-07-20T18:35:08;0.3;0;0
74426;PMS7003;62859;53.906;27.430;2023-07-20T18:40:50;1.3;1.3;0.7
74426;PMS7003;62859;53.906;27.430;2023-07-20T18:45:28;2.7;2.7;2.3
74426;PMS7003;62859;53.906;27.430;2023-07-20T18:50:20;1;0.5;0.3
74426;PMS7003;62859;53.906;27.430;2023-07-20T18:55:42;3.7;3.7;2.7
74426;PMS7003;62859;53.906;27.430;2023-07-20T19:00:50;3.7;2.3;2
74426;PMS7003;62859;53.906;27.430;2023-07-20T19:05:09;2.3;1.5;1
74426;PMS7003;62859;53.906;27.430;2023-07-20T19:10:08;2.3;1.7;1
74426;PMS7003;62859;53.906;27.430;2023-07-20T19:15:50;2;1.7;0.7
74426;PMS7003;62859;53.906;27.430;2023-07-20T19:20:36;2;1.3;1
74426;PMS7003;62859;53.906;27.430;2023-07-20T19:25:20;2.5;1.3;1.3
74426;PMS7003;62859;53.906;27.430;2023-07-20T19:30:14;2.7;2.3;1
74426;PMS7003;62859;53.906;27.430;2023-07-20T19:35:22;2;1;0.7
74426;PMS7003;62859;53.906;27.430;2023-07-20T19:40:28;0.3;0.3;0.3
74426;PMS7003;62859;53.906;27.430;2023-07-20T19:45:28;1;0.5;0.3
74426;PMS7003;62859;53.906;27.430;2023-07-20T19:50:50;1.7;1;0
74426;PMS7003;62859;53.906;27.430;2023-07-20T19:55:34;2.3;2.3;2
74426;PMS7003;62859;53.906;27.430;2023-07-20T20:00:08;1;1;0.7
74426;PMS7003;62859;53.906;27.430;2023-07-20T20:05:50;2.3;1.5;0.8
74426;PMS7003;62859;53.906;27.430;2023-07-20T20:10:26;1.3;1;1
74426;PMS7003;62859;53.906;27.430;2023-07-20T20:15:20;1;0.3;0
74426;PMS7003;62859;53.906;27.430;2023-07-20T20:20:30;0.7;0.7;0
74426;PMS7003;62859;53.906;27.430;2023-07-20T20:25:42;0.8;0.8;0.5
74426;PMS7003;62859;53.906;27.430;2023-07-20T20:30:22;1;0.7;0
74426;PMS7003;62859;53.906;27.430;2023-07-20T20:35:29;1;1;0.7
74426;PMS7003;62859;53.906;27.430;2023-07-20T20:40:26;0.7;0.7;0.3
74426;PMS7003;62859;53.906;27.430;2023-07-20T20:45:14;0.8;0.5;0
74426;PMS7003;62859;53.906;27.430;2023-07-20T20:50:08;0.3;0.3;0.3
74426;PMS7003;62859;53.906;27.430;2023-07-20T20:55:50;0.7;0.7;0.3
74426;PMS7003;62859;53.906;27.430;2023-07-20T21:00:20;0;0;0
74426;PMS7003;62859;53.906;27.430;2023-07-20T21:05:34;1.7;1.7;0.3
74426;PMS7003;62859;53.906;27.430;2023-07-20T21:10:50;1.3;1.3;1
74426;PMS7003;62859;53.906;27.430;2023-07-20T21:15:42;2.3;1;0.3
74426;PMS7003;62859;53.906;27.430;2023-07-20T21:20:09;2.3;1.3;0.8
74426;PMS7003;62859;53.906;27.430;2023-07-20T21:25:42;2.3;1.7;1
74426;PMS7003;62859;53.906;27.430;2023-07-20T21:31:06;1.7;1;0.3
74426;PMS7003;62859;53.906;27.430;2023-07-20T21:35:50;2;1.7;1.7
74426;PMS7003;62859;53.906;27.430;2023-07-20T21:40:50;1.5;1.5;1.3
74426;PMS7003;62859;53.906;27.430;2023-07-20T21:45:48;1.7;1.7;1.3
74426;PMS7003;62859;53.906;27.430;2023-07-20T21:50:20;3;3;2
74426;PMS7003;62859;53.906;27.430;2023-07-20T21:55:08;4.7;4.7;4.3
74426;PMS7003;62859;53.906;27.430;2023-07-20T22:00:11;9;8.5;7.8
74426;PMS7003;62859;53.906;27.430;2023-07-20T22:05:50;9.7;9.7;9.3
74426;PMS7003;62859;53.906;27.430;2023-07-20T22:10:50;5.7;5.7;5.7
74426;PMS7003;62859;53.906;27.430;2023-07-20T22:15:42;2.7;2.3;2
74426;PMS7003;62859;53.906;27.430;2023-07-20T22:20:44;1;1;0.5
74426;PMS7003;62859;53.906;27.430;2023-07-20T22:25:14;0.7;0.7;0.7
74426;PMS7003;62859;53.906;27.430;2023-07-20T22:30:14;0;0;0
74426;PMS7003;62859;53.906;27.430;2023-07-20T22:35:22;0.7;0.7;0.3
74426;PMS7003;62859;53.906;27.430;2023-07-20T22:40:50;0.8;0.8;0.3
74426;PMS7003;62859;53.906;27.430;2023-07-20T22:45:37;0.3;0.3;0
74426;PMS7003;62859;53.906;27.430;2023-07-20T22:50:51;1;0.7;0.7
74426;PMS7003;62859;53.906;27.430;2023-07-20T22:55:08;0.3;0.3;0.3
74426;PMS7003;62859;53.906;27.430;2023-07-20T23:00:09;1.3;0.7;0.7
74426;PMS7003;62859;53.906;27.430;2023-07-20T23:05:36;1;1;0.7
74426;PMS7003;62859;53.906;27.430;2023-07-20T23:10:08;0.7;0.7;0.7
74426;PMS7003;62859;53.906;27.430;2023-07-20T23:15:09;1;0.8;0.5
74426;PMS7003;62859;53.906;27.430;2023-07-20T23:20:26;1.3;1.3;0.7
74426;PMS7003;62859;53.906;27.430;2023-07-20T23:25:51;1;1;0.7
74426;PMS7003;62859;53.906;27.430;2023-07-20T23:30:28;1.3;1.3;0.7
74426;PMS7003;62859;53.906;27.430;2023-07-20T23:35:28;0.3;0;0
74426;PMS7003;62859;53.906;27.430;2023-07-20T23:40:50;1.3;1.3;1.3
74426;PMS7003;62859;53.906;27.430;2023-07-20T23:45:11;1.3;1.3;0.3
74426;PMS7003;62859;53.906;27.430;2023-07-20T23:50:09;1.7;1.3;0.7
74426;PMS7003;62859;53.906;27.430;2023-07-20T23:55:20;2.3;1.3;0.8
